Time;durP1;ratioP1;P1;durP2;ratioP2;P2;SDS_P1;SDS_P2;PMS_P1;PMS_P2;Temp;Humidity;BMP_temperature;BMP_pressure;BME280_temperature;BME280_humidity;BME280_pressure;Samples;Min_cycle;Max_cycle;Signal;HPM_P1;HPM_P2
2021/03/07 00:00:27;;;;;;;3.13;1.35;;;17.30;46.10;;;;;;5094672;28;20031;-72
2021/03/07 00:02:54;;;;;;;1.67;1.20;;;17.20;47.10;;;;;;5094501;28;20023;-72
2021/03/07 00:05:21;;;;;;;3.17;1.15;;;17.40;45.40;;;;;;5102081;28;20042;-72
2021/03/07 00:07:49;;;;;;;6.15;2.38;;;17.10;45.70;;;;;;5103567;28;20357;-72
2021/03/07 00:10:17;;;;;;;4.50;1.40;;;17.40;46.40;;;;;;5102546;28;20042;-72
2021/03/07 00:12:46;;;;;;;4.32;1.08;;;17.30;46.10;;;;;;5100109;28;20062;-72
2021/03/07 00:15:14;;;;;;;4.20;1.60;;;17.20;46.20;;;;;;5102297;28;20108;-72
2021/03/07 00:17:41;;;;;;;4.53;1.33;;;17.00;46.50;;;;;;5099767;28;20086;-73
2021/03/07 00:20:12;;;;;;;6.13;2.67;;;17.00;46.80;;;;;;5103507;28;20092;-72
2021/03/07 00:22:39;;;;;;;1.95;1.13;;;17.00;45.60;;;;;;5101938;28;20443;-72
2021/03/07 00:25:08;;;;;;;2.60;0.90;;;17.20;45.70;;;;;;5102713;28;20123;-72
2021/03/07 00:27:34;;;;;;;7.60;1.90;;;17.30;44.80;;;;;;5102600;28;20077;-73
2021/03/07 00:30:01;;;;;;;6.38;1.20;;;17.20;45.40;;;;;;5102624;28;20058;-73
2021/03/07 00:32:28;;;;;;;2.97;1.45;;;17.00;44.50;;;;;;5101423;28;20058;-73
2021/03/07 00:34:54;;;;;;;3.72;0.90;;;17.00;45.00;;;;;;5101689;28;20035;-72
2021/03/07 00:37:21;;;;;;;2.35;1.00;;;17.00;44.70;;;;;;5102148;28;20031;-72
2021/03/07 00:39:47;;;;;;;6.45;1.38;;;16.90;44.30;;;;;;5106711;28;20019;-72
2021/03/07 00:42:13;;;;;;;7.03;1.52;;;16.50;44.50;;;;;;5106195;28;20032;-73
2021/03/07 00:44:40;;;;;;;3.78;1.63;;;16.50;44.50;;;;;;5106647;28;20024;-72
2021/03/07 00:47:07;;;;;;;4.75;1.00;;;16.40;44.80;;;;;;5103674;28;20046;-72
2021/03/07 00:49:33;;;;;;;3.58;1.30;;;16.30;45.20;;;;;;5105460;28;20414;-72
2021/03/07 00:52:00;;;;;;;6.47;1.75;;;16.10;45.50;;;;;;5101934;28;20020;-73
2021/03/07 00:54:27;;;;;;;5.90;1.52;;;15.90;46.50;;;;;;5094947;28;20626;-72
2021/03/07 00:56:54;;;;;;;3.10;1.30;;;15.90;46.90;;;;;;5103283;28;20028;-72
2021/03/07 00:59:21;;;;;;;6.07;1.77;;;15.80;47.40;;;;;;5104127;28;20023;-72
2021/03/07 01:01:48;;;;;;;6.35;1.15;;;15.80;47.40;;;;;;5102512;28;20036;-72
2021/03/07 01:04:15;;;;;;;4.03;1.50;;;15.90;47.10;;;;;;5090105;28;20033;-75
2021/03/07 01:06:42;;;;;;;3.42;1.30;;;15.90;47.40;;;;;;5105405;28;20027;-71
2021/03/07 01:09:08;;;;;;;8.23;2.17;;;15.60;48.10;;;;;;5106045;28;20020;-73
2021/03/07 01:11:35;;;;;;;5.05;1.65;;;15.70;48.30;;;;;;5101516;28;20028;-72
2021/03/07 01:14:02;;;;;;;3.80;1.55;;;15.60;48.40;;;;;;5102636;28;20024;-72
2021/03/07 01:16:28;;;;;;;4.07;1.50;;;15.20;49.00;;;;;;5103211;28;20027;-72
2021/03/07 01:18:55;;;;;;;15.38;1.83;;;15.20;49.60;;;;;;5092642;28;20461;-72
2021/03/07 01:21:21;;;;;;;2.63;1.38;;;15.40;49.00;;;;;;5096687;28;20043;-72
2021/03/07 01:23:48;;;;;;;3.13;1.50;;;15.30;49.60;;;;;;5100342;28;20104;-72
2021/03/07 01:26:14;;;;;;;8.90;1.45;;;15.30;49.30;;;;;;5100516;28;20034;-72
2021/03/07 01:28:40;;;;;;;3.78;2.17;;;15.10;50.30;;;;;;5098951;28;20023;-72
2021/03/07 01:31:07;;;;;;;3.33;1.38;;;15.10;50.60;;;;;;5104101;28;20081;-72
2021/03/07 01:33:33;;;;;;;4.03;1.70;;;14.80;51.20;;;;;;5098216;28;20089;-72
2021/03/07 01:36:02;;;;;;;7.63;1.65;;;14.70;51.40;;;;;;5098394;28;20492;-72
2021/03/07 01:38:30;;;;;;;11.43;2.05;;;14.60;51.50;;;;;;5104686;28;20529;-72
2021/03/07 01:40:58;;;;;;;4.43;1.40;;;14.50;52.00;;;;;;5102816;28;20052;-73
2021/03/07 01:43:25;;;;;;;2.38;1.42;;;14.40;51.90;;;;;;5101677;28;20508;-71
2021/03/07 01:45:53;;;;;;;4.30;1.65;;;14.40;51.80;;;;;;5093462;28;20029;-72
2021/03/07 01:48:19;;;;;;;5.93;1.65;;;14.40;51.90;;;;;;5104510;28;20156;-71
2021/03/07 01:50:52;;;;;;;3.92;1.30;;;14.10;52.80;;;;;;5105108;28;20027;-72
2021/03/07 01:53:21;;;;;;;5.35;1.50;;;14.00;52.80;;;;;;5102990;28;20176;-72
2021/03/07 01:55:50;;;;;;;6.88;1.70;;;14.00;53.50;;;;;;5101875;28;20019;-73
2021/03/07 01:58:28;;;;;;;4.03;1.75;;;13.90;52.60;;;;;;5103164;28;20331;-72
2021/03/07 02:00:56;;;;;;;5.88;1.92;;;13.80;53.10;;;;;;5102160;28;20024;-71
2021/03/07 02:03:23;;;;;;;5.25;2.03;;;13.70;54.50;;;;;;5097009;28;20024;-71
2021/03/07 02:05:50;;;;;;;5.07;1.58;;;13.70;53.10;;;;;;5095875;28;20461;-72
2021/03/07 02:08:18;;;;;;;8.98;2.08;;;13.50;54.30;;;;;;5101865;28;20453;-73
2021/03/07 02:10:49;;;;;;;3.67;1.70;;;13.50;54.90;;;;;;5102695;28;20094;-72
2021/03/07 02:13:23;;;;;;;8.13;2.67;;;13.40;54.70;;;;;;5101636;28;20112;-71
2021/03/07 02:15:54;;;;;;;6.30;2.20;;;13.50;53.90;;;;;;5103889;28;20365;-72
2021/03/07 02:18:21;;;;;;;4.28;1.90;;;13.20;54.80;;;;;;5097400;28;20019;-71
2021/03/07 02:21:01;;;;;;;4.90;2.08;;;13.10;56.40;;;;;;5095971;28;20052;-72
2021/03/07 02:23:33;;;;;;;5.22;2.45;;;13.10;54.90;;;;;;5090743;28;20059;-71
2021/03/07 02:26:00;;;;;;;9.57;2.33;;;13.10;55.60;;;;;;5102256;28;20027;-72
2021/03/07 02:28:27;;;;;;;5.85;2.75;;;12.90;55.30;;;;;;5100484;28;20031;-72
2021/03/07 02:30:54;;;;;;;6.35;2.05;;;13.00;54.40;;;;;;5099388;28;20020;-72
2021/03/07 02:33:33;;;;;;;8.05;1.92;;;12.90;55.30;;;;;;5104183;28;20047;-73
2021/03/07 02:36:09;;;;;;;5.95;2.42;;;12.80;54.70;;;;;;5103530;28;20086;-72
2021/03/07 02:38:38;;;;;;;4.18;1.77;;;12.80;55.60;;;;;;5098125;28;20032;-72
2021/03/07 02:41:08;;;;;;;8.23;1.55;;;12.80;55.80;;;;;;5101859;28;20075;-72
2021/03/07 02:43:40;;;;;;;6.32;1.90;;;12.80;54.90;;;;;;5097483;28;20136;-72
2021/03/07 02:46:08;;;;;;;4.70;1.77;;;12.90;55.00;;;;;;5103438;28;20024;-72
2021/03/07 02:48:36;;;;;;;7.03;1.60;;;12.90;54.40;;;;;;5103481;28;20059;-73
2021/03/07 02:51:04;;;;;;;2.28;1.42;;;12.90;54.10;;;;;;5103346;28;20654;-72
2021/03/07 02:53:33;;;;;;;9.82;2.08;;;13.00;54.90;;;;;;5102639;28;20028;-73
2021/03/07 02:56:04;;;;;;;3.67;1.67;;;12.90;53.70;;;;;;5094116;28;20024;-72
2021/03/07 02:58:33;;;;;;;7.70;2.88;;;13.20;53.50;;;;;;5090541;28;20028;-73
2021/03/07 03:01:05;;;;;;;6.85;2.08;;;13.10;53.70;;;;;;5095654;28;20032;-75
2021/03/07 03:03:45;;;;;;;14.77;1.90;;;13.10;53.50;;;;;;5102318;28;20122;-73
2021/03/07 03:06:15;;;;;;;6.57;2.00;;;13.00;53.60;;;;;;5101775;28;20032;-72
2021/03/07 03:08:45;;;;;;;4.65;1.52;;;12.70;55.10;;;;;;5092586;28;20444;-74
2021/03/07 03:11:12;;;;;;;5.38;1.80;;;12.70;55.30;;;;;;5103310;28;20020;-72
2021/03/07 03:13:40;;;;;;;4.03;2.08;;;12.80;54.90;;;;;;5092667;28;20024;-73
2021/03/07 03:16:08;;;;;;;10.68;3.25;;;12.90;55.70;;;;;;5095542;28;20338;-73
2021/03/07 03:18:37;;;;;;;5.90;1.75;;;12.50;56.80;;;;;;5097250;28;20032;-73
2021/03/07 03:21:08;;;;;;;6.13;1.90;;;12.60;55.70;;;;;;5098834;28;20028;-73
2021/03/07 03:23:36;;;;;;;7.63;2.00;;;12.40;56.90;;;;;;5092915;28;20020;-73
2021/03/07 03:26:03;;;;;;;5.07;1.88;;;12.70;56.80;;;;;;5101413;28;20024;-73
2021/03/07 03:28:29;;;;;;;7.35;2.38;;;12.70;56.80;;;;;;5094602;28;20032;-73
2021/03/07 03:30:57;;;;;;;5.13;1.58;;;12.90;56.50;;;;;;5098805;28;20016;-74
2021/03/07 03:33:25;;;;;;;3.92;1.65;;;12.60;56.00;;;;;;5100303;28;20025;-73
2021/03/07 03:35:52;;;;;;;5.65;1.73;;;12.50;57.10;;;;;;5098576;28;20466;-72
2021/03/07 03:38:20;;;;;;;3.88;1.98;;;12.60;56.40;;;;;;5103079;28;20061;-72
2021/03/07 03:40:52;;;;;;;6.18;1.98;;;12.70;56.40;;;;;;5094036;28;20066;-73
2021/03/07 03:43:21;;;;;;;4.50;1.75;;;12.60;57.00;;;;;;5093721;28;20028;-72
2021/03/07 03:45:50;;;;;;;4.25;1.75;;;12.50;57.10;;;;;;5097412;28;20019;-73
2021/03/07 03:48:21;;;;;;;3.25;1.40;;;12.50;56.60;;;;;;5097353;28;20035;-73
2021/03/07 03:50:49;;;;;;;11.40;2.30;;;12.50;56.00;;;;;;5095026;28;20015;-73
2021/03/07 03:53:19;;;;;;;4.97;1.98;;;12.30;57.60;;;;;;5089949;28;20115;-73
2021/03/07 03:55:51;;;;;;;5.95;1.50;;;12.20;57.80;;;;;;5099435;28;20024;-73
2021/03/07 03:58:22;;;;;;;13.02;2.63;;;12.30;57.20;;;;;;5099645;28;20024;-71
2021/03/07 04:00:51;;;;;;;2.87;1.70;;;12.10;57.40;;;;;;5100503;28;20366;-72
2021/03/07 04:03:19;;;;;;;9.57;1.83;;;12.20;57.10;;;;;;5100856;28;20028;-72
2021/03/07 04:05:47;;;;;;;4.95;2.30;;;12.20;57.30;;;;;;5093752;28;20043;-72
2021/03/07 04:08:15;;;;;;;3.17;1.83;;;12.30;56.90;;;;;;5098082;28;20040;-73
2021/03/07 04:10:44;;;;;;;5.75;1.75;;;12.30;57.10;;;;;;5101938;28;20019;-74
2021/03/07 04:13:17;;;;;;;10.63;2.08;;;12.30;57.80;;;;;;5100943;28;20331;-72
2021/03/07 04:15:44;;;;;;;3.33;2.03;;;12.50;57.70;;;;;;5104398;28;20019;-73
2021/03/07 04:18:15;;;;;;;8.65;2.13;;;12.20;58.20;;;;;;5105252;28;20040;-73
2021/03/07 04:20:43;;;;;;;5.97;2.50;;;12.30;57.70;;;;;;5101814;28;20028;-73
2021/03/07 04:23:11;;;;;;;6.80;2.10;;;12.20;57.00;;;;;;5093109;28;20031;-72
2021/03/07 04:25:38;;;;;;;4.68;1.65;;;12.20;57.10;;;;;;5089961;28;20028;-71
2021/03/07 04:28:06;;;;;;;6.22;3.25;;;12.10;58.10;;;;;;5093031;28;20035;-72
2021/03/07 04:30:36;;;;;;;9.93;2.28;;;12.10;58.10;;;;;;5098417;28;20032;-72
2021/03/07 04:33:05;;;;;;;6.45;1.90;;;12.10;58.10;;;;;;5100976;28;20043;-72
2021/03/07 04:35:33;;;;;;;8.32;2.10;;;12.00;58.10;;;;;;5098953;28;20506;-72
2021/03/07 04:38:04;;;;;;;9.93;2.30;;;11.90;58.40;;;;;;5098044;28;20039;-72
2021/03/07 04:40:32;;;;;;;8.35;3.33;;;11.90;58.80;;;;;;5102321;28;20032;-72
2021/03/07 04:43:00;;;;;;;7.90;2.03;;;12.10;57.80;;;;;;5103369;28;20028;-72
2021/03/07 04:45:27;;;;;;;10.57;3.03;;;12.10;57.50;;;;;;5103834;28;20454;-72
2021/03/07 04:47:53;;;;;;;11.10;2.22;;;12.10;57.80;;;;;;5099919;28;20036;-72
2021/03/07 04:50:20;;;;;;;9.00;2.70;;;12.00;57.40;;;;;;5105689;28;20035;-72
2021/03/07 04:52:46;;;;;;;6.38;2.42;;;12.00;57.70;;;;;;5106789;28;20020;-72
2021/03/07 04:55:13;;;;;;;5.78;2.00;;;12.00;57.90;;;;;;5104145;28;20111;-71
2021/03/07 04:57:41;;;;;;;11.75;3.88;;;12.00;58.00;;;;;;5104215;28;20032;-72
2021/03/07 05:00:13;;;;;;;9.15;3.40;;;12.00;58.10;;;;;;5102097;28;20334;-72
2021/03/07 05:02:40;;;;;;;5.28;2.13;;;12.00;57.80;;;;;;5098856;28;20032;-72
2021/03/07 05:05:08;;;;;;;7.30;1.67;;;11.90;58.20;;;;;;5104409;28;20027;-72
2021/03/07 05:07:35;;;;;;;8.48;2.95;;;11.90;58.90;;;;;;5104213;28;20046;-71
2021/03/07 05:10:02;;;;;;;13.18;3.65;;;11.90;58.70;;;;;;5105481;28;20079;-72
2021/03/07 05:12:28;;;;;;;6.95;2.38;;;11.80;58.90;;;;;;5103637;28;20067;-73
2021/03/07 05:14:55;;;;;;;6.85;2.35;;;11.70;59.10;;;;;;5094342;28;20029;-72
2021/03/07 05:17:24;;;;;;;8.60;2.42;;;11.80;58.70;;;;;;5095700;28;20342;-73
2021/03/07 05:19:51;;;;;;;17.60;4.10;;;11.90;60.30;;;;;;5103930;28;20047;-72
2021/03/07 05:22:18;;;;;;;11.80;2.70;;;12.00;60.70;;;;;;5084021;28;20368;-72
2021/03/07 05:24:44;;;;;;;11.25;2.90;;;12.00;59.70;;;;;;5100500;28;20055;-72
2021/03/07 05:27:11;;;;;;;7.07;2.00;;;12.00;59.40;;;;;;5102249;28;20474;-72
2021/03/07 05:29:38;;;;;;;6.50;1.70;;;11.90;59.60;;;;;;5107594;28;20023;-72
2021/03/07 05:32:05;;;;;;;10.15;2.53;;;11.80;60.40;;;;;;5101960;28;20024;-72
2021/03/07 05:34:32;;;;;;;7.95;2.58;;;11.70;59.30;;;;;;5103779;28;20024;-72
2021/03/07 05:36:59;;;;;;;3.88;2.10;;;11.70;59.10;;;;;;5107096;28;20039;-72
2021/03/07 05:39:26;;;;;;;9.32;2.70;;;11.70;58.90;;;;;;5101164;28;20445;-73
2021/03/07 05:41:53;;;;;;;8.18;2.00;;;11.70;58.60;;;;;;5105185;28;20114;-73
2021/03/07 05:44:20;;;;;;;5.60;2.30;;;11.60;59.30;;;;;;5101576;28;20065;-72
2021/03/07 05:46:47;;;;;;;6.78;2.53;;;11.40;59.60;;;;;;5105641;28;20110;-74
2021/03/07 05:49:13;;;;;;;14.15;3.67;;;11.50;59.30;;;;;;5103697;28;20584;-73
2021/03/07 05:51:43;;;;;;;11.32;2.78;;;11.40;59.10;;;;;;5104080;28;20024;-72
2021/03/07 05:54:11;;;;;;;3.70;2.28;;;11.30;58.80;;;;;;5093150;28;20385;-72
2021/03/07 05:56:41;;;;;;;6.45;2.47;;;11.20;59.90;;;;;;5097649;28;20456;-73
2021/03/07 05:59:08;;;;;;;6.75;2.47;;;11.10;58.90;;;;;;5104233;28;20035;-73
2021/03/07 06:01:38;;;;;;;2.45;2.10;;;11.10;58.70;;;;;;5098142;28;20035;-73
2021/03/07 06:04:05;;;;;;;6.80;3.13;;;11.00;59.50;;;;;;5100573;28;20026;-73
2021/03/07 06:06:32;;;;;;;11.80;2.63;;;10.80;60.00;;;;;;5100439;28;20036;-74
2021/03/07 06:09:22;;;;;;;7.90;2.50;;;10.80;58.70;;;;;;5101919;28;20031;-71
2021/03/07 06:11:51;;;;;;;13.63;2.45;;;10.70;60.10;;;;;;5097706;28;20044;-73
2021/03/07 06:14:25;;;;;;;14.10;2.72;;;10.70;59.70;;;;;;5103717;28;20092;-74
2021/03/07 06:17:14;;;;;;;10.50;2.33;;;10.70;59.70;;;;;;5098517;28;20020;-72
2021/03/07 06:20:13;;;;;;;7.03;2.47;;;10.70;60.10;;;;;;5096673;28;20035;-72
2021/03/07 06:23:10;;;;;;;5.70;2.30;;;10.60;59.90;;;;;;5043782;28;20043;-73
2021/03/07 06:25:49;;;;;;;10.60;2.47;;;10.60;59.50;;;;;;5080432;28;20036;-72
2021/03/07 06:28:25;;;;;;;9.07;2.40;;;10.60;59.90;;;;;;5098597;28;20077;-72
2021/03/07 06:30:53;;;;;;;10.95;2.45;;;10.60;59.90;;;;;;5103904;28;20052;-73
2021/03/07 06:33:38;;;;;;;6.55;2.38;;;10.60;60.40;;;;;;5099491;28;20044;-72
2021/03/07 06:36:30;;;;;;;17.48;2.88;;;10.40;59.80;;;;;;5101908;28;20156;-73
2021/03/07 06:39:00;;;;;;;5.13;2.30;;;10.40;60.40;;;;;;5095345;28;20581;-72
2021/03/07 06:41:29;;;;;;;8.65;2.00;;;10.40;60.60;;;;;;5102979;28;20028;-73
2021/03/07 06:44:15;;;;;;;9.45;2.80;;;10.40;61.90;;;;;;5104347;28;20059;-72
2021/03/07 06:46:46;;;;;;;9.10;2.65;;;10.40;61.50;;;;;;5100182;28;20020;-73
2021/03/07 06:49:32;;;;;;;6.82;1.98;;;10.30;60.50;;;;;;5102770;28;20119;-72
2021/03/07 06:52:14;;;;;;;7.80;2.10;;;10.20;61.00;;;;;;5102867;28;20107;-73
2021/03/07 06:54:41;;;;;;;;;;;10.10;61.10;;;;;;5105235;28;20031;-76
2021/03/07 06:57:08;;;;;;;7.88;2.55;;;10.10;61.30;;;;;;5103797;28;20048;-73
2021/03/07 06:59:35;;;;;;;11.57;2.72;;;10.30;62.30;;;;;;5102254;28;20166;-72
2021/03/07 07:02:11;;;;;;;7.15;2.13;;;10.10;60.70;;;;;;5099977;28;20031;-72
2021/03/07 07:04:44;;;;;;;11.27;2.53;;;10.10;61.50;;;;;;5102038;28;20111;-72
2021/03/07 07:07:17;;;;;;;4.45;2.10;;;10.20;61.90;;;;;;5103443;28;20028;-72
2021/03/07 07:09:46;;;;;;;;;;;10.10;61.60;;;;;;5099384;28;20038;-72
2021/03/07 07:12:24;;;;;;;5.90;2.10;;;10.20;62.10;;;;;;5096612;28;20369;-72
2021/03/07 07:15:02;;;;;;;12.40;2.90;;;10.10;61.40;;;;;;5101604;28;20028;-72
2021/03/07 07:17:28;;;;;;;16.00;3.10;;;10.10;62.00;;;;;;5097857;28;20027;-71
2021/03/07 07:20:06;;;;;;;15.13;4.05;;;10.10;62.30;;;;;;5093999;28;20019;-71
2021/03/07 07:22:33;;;;;;;13.70;2.50;;;10.10;62.50;;;;;;5102556;28;20024;-73
2021/03/07 07:25:00;;;;;;;15.05;2.90;;;10.00;62.10;;;;;;5090766;28;20115;-72
2021/03/07 07:27:27;;;;;;;9.50;2.70;;;9.90;62.00;;;;;;5100210;28;20027;-72
2021/03/07 07:29:53;;;;;;;7.35;2.45;;;9.80;62.00;;;;;;5093491;28;20024;-72
2021/03/07 07:32:23;;;;;;;10.07;2.90;;;9.90;63.10;;;;;;5098497;28;20028;-72
2021/03/07 07:34:54;;;;;;;10.70;2.53;;;9.80;62.60;;;;;;5098570;28;20016;-72
2021/03/07 07:37:53;;;;;;;9.20;2.40;;;9.80;63.50;;;;;;5079704;28;20111;-72
2021/03/07 07:40:31;;;;;;;10.52;3.20;;;9.80;64.00;;;;;;5097045;28;20032;-72
2021/03/07 07:42:59;;;;;;;17.42;3.97;;;9.90;63.80;;;;;;5098496;28;20438;-72
2021/03/07 07:45:26;;;;;;;8.73;2.53;;;10.10;64.00;;;;;;5096812;28;20457;-73
2021/03/07 07:47:56;;;;;;;10.38;2.25;;;10.10;64.20;;;;;;5101871;28;20031;-73
2021/03/07 07:50:29;;;;;;;10.07;3.38;;;10.10;64.00;;;;;;5094448;28;20084;-73
2021/03/07 07:53:24;;;;;;;6.78;2.38;;;10.10;63.10;;;;;;5103666;28;20031;-72
2021/03/07 07:55:53;;;;;;;12.40;2.53;;;10.20;62.60;;;;;;5093137;28;20036;-72
2021/03/07 07:58:35;;;;;;;15.35;3.80;;;10.10;62.70;;;;;;5099708;28;20433;-73
2021/03/07 08:01:05;;;;;;;8.05;2.17;;;10.10;62.50;;;;;;5098075;28;20028;-73
2021/03/07 08:03:40;;;;;;;9.40;3.17;;;10.00;62.70;;;;;;5100172;28;20031;-72
2021/03/07 08:06:09;;;;;;;12.40;3.08;;;10.00;62.60;;;;;;5099597;28;20051;-72
2021/03/07 08:08:45;;;;;;;4.95;2.35;;;10.10;62.30;;;;;;5100394;28;20417;-72
2021/03/07 08:11:28;;;;;;;8.15;2.97;;;9.90;61.90;;;;;;5096794;28;20460;-72
2021/03/07 08:13:54;;;;;;;;;;;9.80;62.00;;;;;;5099100;28;20164;-72
2021/03/07 08:16:43;;;;;;;6.03;2.65;;;9.70;62.10;;;;;;5101035;28;19918;-71
2021/03/07 08:19:12;;;;;;;6.07;2.47;;;9.50;63.00;;;;;;5100022;28;20435;-72
2021/03/07 08:21:58;;;;;;;10.27;2.80;;;9.40;63.40;;;;;;5098313;28;20126;-72
2021/03/07 08:24:45;;;;;;;8.27;2.40;;;9.40;62.50;;;;;;5098880;28;20034;-72
2021/03/07 08:27:37;;;;;;;14.20;3.80;;;9.40;61.90;;;;;;5099523;28;20028;-73
2021/03/07 08:30:17;;;;;;;11.63;2.50;;;9.60;63.50;;;;;;5099218;28;20020;-72
2021/03/07 08:32:44;;;;;;;12.57;3.35;;;9.60;63.00;;;;;;5101558;28;20056;-72
2021/03/07 08:35:22;;;;;;;14.00;2.83;;;9.50;62.80;;;;;;5099745;28;20110;-72
2021/03/07 08:38:14;;;;;;;7.85;2.35;;;9.30;62.60;;;;;;5100355;28;20028;-72
2021/03/07 08:40:42;;;;;;;12.52;4.55;;;9.20;62.70;;;;;;5100033;28;20037;-72
2021/03/07 08:43:24;;;;;;;6.68;2.58;;;9.30;63.60;;;;;;5101827;28;20027;-73
2021/03/07 08:46:05;;;;;;;11.65;2.63;;;9.30;64.20;;;;;;5097771;28;20099;-76
2021/03/07 08:48:33;;;;;;;15.05;2.67;;;9.10;63.80;;;;;;5104504;28;20024;-76
2021/03/07 08:51:00;;;;;;;9.00;2.35;;;9.00;63.40;;;;;;5104101;28;20031;-72
2021/03/07 08:53:29;;;;;;;7.70;2.78;;;8.90;63.50;;;;;;5100382;28;20440;-72
2021/03/07 08:55:56;;;;;;;9.63;3.33;;;9.00;64.20;;;;;;5102409;28;20028;-71
2021/03/07 08:58:23;;;;;;;13.50;2.50;;;8.90;64.00;;;;;;5104581;28;20042;-72
2021/03/07 09:00:52;;;;;;;6.85;2.72;;;8.90;64.10;;;;;;5105848;28;20443;-71
2021/03/07 09:03:19;;;;;;;9.75;2.92;;;9.00;65.00;;;;;;5100295;28;20032;-71
2021/03/07 09:05:46;;;;;;;8.20;2.58;;;9.00;65.30;;;;;;5098844;28;20032;-71
2021/03/07 09:08:13;;;;;;;12.25;3.08;;;9.00;64.80;;;;;;5106738;28;20035;-71
2021/03/07 09:10:46;;;;;;;6.32;2.38;;;9.00;65.70;;;;;;5096543;28;20030;-71
2021/03/07 09:13:24;;;;;;;8.63;2.75;;;9.10;65.70;;;;;;5102652;28;20107;-72
2021/03/07 09:16:08;;;;;;;10.02;2.53;;;9.10;65.20;;;;;;5104998;28;20381;-71
2021/03/07 09:18:38;;;;;;;10.25;2.85;;;9.00;65.20;;;;;;5101484;28;20368;-73
2021/03/07 09:21:11;;;;;;;9.50;2.55;;;8.90;64.70;;;;;;5101647;28;20534;-72
2021/03/07 09:23:41;;;;;;;;;;;8.80;64.80;;;;;;5102153;28;20055;-71
2021/03/07 09:26:11;;;;;;;9.95;2.78;;;9.10;66.60;;;;;;5101551;28;20294;-72
2021/03/07 09:28:46;;;;;;;7.78;2.95;;;9.10;66.40;;;;;;5102935;28;20036;-71
2021/03/07 09:31:17;;;;;;;14.18;2.85;;;9.10;66.60;;;;;;5102457;28;20032;-72
2021/03/07 09:33:57;;;;;;;13.95;2.22;;;9.10;66.30;;;;;;5098075;28;20476;-72
2021/03/07 09:36:28;;;;;;;13.40;2.95;;;9.00;65.90;;;;;;5097930;28;20462;-72
2021/03/07 09:39:05;;;;;;;8.73;3.03;;;8.90;66.50;;;;;;5101236;28;20031;-72
2021/03/07 09:41:47;;;;;;;9.10;2.63;;;9.00;66.80;;;;;;5097271;28;20032;-72
2021/03/07 09:44:23;;;;;;;12.60;4.00;;;9.00;66.60;;;;;;5106397;28;20456;-71
2021/03/07 09:46:52;;;;;;;14.13;3.22;;;8.80;66.60;;;;;;5092721;28;20085;-72
2021/03/07 09:49:24;;;;;;;8.57;2.15;;;8.90;67.30;;;;;;5100789;28;20514;-72
2021/03/07 09:51:52;;;;;;;10.60;2.53;;;8.80;66.30;;;;;;5100350;28;20028;-71
2021/03/07 09:54:20;;;;;;;11.93;3.83;;;8.90;67.60;;;;;;5103377;28;20031;-72
2021/03/07 09:56:47;;;;;;;18.40;4.45;;;9.00;66.80;;;;;;5101108;28;20027;-72
2021/03/07 09:59:17;;;;;;;13.45;3.83;;;8.90;66.50;;;;;;5103334;28;20029;-74
2021/03/07 10:01:50;;;;;;;14.05;3.33;;;8.80;66.90;;;;;;5104287;28;20039;-71
2021/03/07 10:04:34;;;;;;;4.97;2.72;;;8.80;66.80;;;;;;5098191;28;20112;-72
2021/03/07 10:07:25;;;;;;;8.70;2.58;;;8.70;66.20;;;;;;5102977;28;20020;-71
2021/03/07 10:10:11;;;;;;;9.02;2.50;;;8.60;66.10;;;;;;5102025;28;20031;-71
2021/03/07 10:12:56;;;;;;;7.97;2.40;;;8.50;66.30;;;;;;5100591;28;20028;-71
2021/03/07 10:15:22;;;;;;;7.22;2.58;;;8.60;66.50;;;;;;5101351;28;20069;-71
2021/03/07 10:17:49;;;;;;;9.48;2.78;;;8.40;66.30;;;;;;5103875;28;20456;-71
2021/03/07 10:20:16;;;;;;;12.07;2.80;;;8.60;68.00;;;;;;5101098;28;20422;-70
2021/03/07 10:22:45;;;;;;;9.55;3.50;;;8.70;67.00;;;;;;5098685;28;20039;-72
2021/03/07 10:25:29;;;;;;;7.35;2.35;;;8.80;67.00;;;;;;5100556;28;20327;-71
2021/03/07 10:28:07;;;;;;;5.75;2.33;;;8.60;66.60;;;;;;5100223;28;20054;-71
2021/03/07 10:30:40;;;;;;;4.05;2.85;;;8.60;66.60;;;;;;5099668;28;20027;-71
2021/03/07 10:33:16;;;;;;;6.32;3.05;;;8.70;67.30;;;;;;5101024;28;20024;-72
2021/03/07 10:36:01;;;;;;;10.27;2.63;;;8.80;67.70;;;;;;5101130;28;20047;-71
2021/03/07 10:38:29;;;;;;;12.27;3.25;;;8.60;66.90;;;;;;5102143;28;20032;-71
2021/03/07 10:40:56;;;;;;;5.90;2.58;;;8.70;66.80;;;;;;5103610;28;20474;-72
2021/03/07 10:43:23;;;;;;;6.60;4.45;;;8.70;66.60;;;;;;5102319;28;20437;-73
2021/03/07 10:45:50;;;;;;;9.73;2.42;;;8.80;67.00;;;;;;5104102;28;20032;-72
2021/03/07 10:48:16;;;;;;;5.75;2.28;;;8.80;66.20;;;;;;5098632;28;20098;-72
2021/03/07 10:50:49;;;;;;;6.25;2.72;;;8.90;66.70;;;;;;5099874;28;20052;-70
2021/03/07 10:53:19;;;;;;;6.57;2.47;;;8.80;67.20;;;;;;5103710;28;20034;-72
2021/03/07 10:55:52;;;;;;;10.30;4.28;;;8.90;66.50;;;;;;5101060;28;20101;-72
2021/03/07 10:58:20;;;;;;;5.35;2.60;;;8.90;66.20;;;;;;5100340;28;20032;-72
2021/03/07 11:00:46;;;;;;;9.10;2.63;;;8.80;66.40;;;;;;5100235;28;20024;-72
2021/03/07 11:03:12;;;;;;;8.20;2.13;;;8.80;66.70;;;;;;5103406;28;20421;-73
2021/03/07 11:05:39;;;;;;;10.27;2.58;;;8.90;66.80;;;;;;5102041;28;20038;-72
2021/03/07 11:08:05;;;;;;;8.88;2.60;;;8.80;66.20;;;;;;5100795;28;20028;-72
2021/03/07 11:10:32;;;;;;;8.68;2.20;;;8.80;66.20;;;;;;5099437;28;20028;-72
2021/03/07 11:12:58;;;;;;;13.90;2.75;;;8.80;66.20;;;;;;5099894;28;20042;-72
2021/03/07 11:15:25;;;;;;;6.65;2.10;;;8.90;66.00;;;;;;5099524;28;20058;-72
2021/03/07 11:17:51;;;;;;;6.38;3.00;;;8.90;66.30;;;;;;5099561;28;20028;-72
2021/03/07 11:20:18;;;;;;;9.20;2.35;;;8.90;66.60;;;;;;5101486;28;20016;-72
2021/03/07 11:22:44;;;;;;;6.10;2.20;;;8.80;66.50;;;;;;5102674;28;20031;-72
2021/03/07 11:25:11;;;;;;;11.68;3.15;;;8.80;66.60;;;;;;5100918;28;20035;-73
2021/03/07 11:27:37;;;;;;;8.00;2.88;;;8.80;66.30;;;;;;5102026;28;20480;-76
2021/03/07 11:30:05;;;;;;;6.20;2.60;;;8.80;66.40;;;;;;5103559;28;20030;-72
2021/03/07 11:32:32;;;;;;;7.25;2.60;;;8.80;66.20;;;;;;5098539;28;20544;-72
2021/03/07 11:34:58;;;;;;;6.85;3.50;;;8.80;65.80;;;;;;5100843;28;20070;-72
2021/03/07 11:37:25;;;;;;;6.47;2.25;;;8.80;65.50;;;;;;5099744;28;20099;-71
2021/03/07 11:39:51;;;;;;;6.43;2.33;;;8.80;65.20;;;;;;5100010;28;20449;-72
2021/03/07 11:42:18;;;;;;;7.60;2.10;;;8.70;65.50;;;;;;5100276;28;20035;-71
2021/03/07 11:44:44;;;;;;;7.22;2.58;;;8.70;65.90;;;;;;5096873;28;20036;-71
2021/03/07 11:47:10;;;;;;;5.40;2.30;;;8.80;65.70;;;;;;5101378;28;20173;-72
2021/03/07 11:49:37;;;;;;;5.85;2.40;;;8.80;65.70;;;;;;5098487;28;20468;-71
2021/03/07 11:52:03;;;;;;;8.23;2.25;;;8.80;65.50;;;;;;5100713;28;20020;-72
2021/03/07 11:54:30;;;;;;;8.52;3.58;;;8.80;65.90;;;;;;5101984;28;20349;-71
2021/03/07 11:56:56;;;;;;;5.18;2.75;;;8.70;65.50;;;;;;5098311;28;20059;-71
2021/03/07 11:59:22;;;;;;;7.85;2.67;;;8.70;65.60;;;;;;5096746;28;20042;-71
2021/03/07 12:01:49;;;;;;;11.90;2.75;;;8.70;66.20;;;;;;5100126;28;20449;-71
2021/03/07 12:04:15;;;;;;;8.18;3.10;;;8.80;66.50;;;;;;5101175;28;20094;-71
2021/03/07 12:06:41;;;;;;;10.90;2.50;;;8.80;66.00;;;;;;5096698;28;20028;-71
2021/03/07 12:09:08;;;;;;;7.25;3.03;;;8.80;66.40;;;;;;5100310;28;20028;-71
2021/03/07 12:11:34;;;;;;;7.88;2.58;;;8.80;66.60;;;;;;5095138;28;20051;-71
2021/03/07 12:14:01;;;;;;;4.95;2.17;;;8.80;66.30;;;;;;5099874;28;20047;-71
2021/03/07 12:16:27;;;;;;;11.70;3.40;;;8.70;66.40;;;;;;5100671;28;20084;-73
2021/03/07 12:18:54;;;;;;;5.53;2.20;;;8.70;66.70;;;;;;5100460;28;20110;-71
2021/03/07 12:21:20;;;;;;;10.15;3.25;;;8.60;66.60;;;;;;5101418;28;20043;-72
2021/03/07 12:23:47;;;;;;;7.15;2.35;;;8.70;66.90;;;;;;5100598;28;20069;-71
2021/03/07 12:26:13;;;;;;;9.93;2.70;;;8.60;66.70;;;;;;5098149;28;20027;-72
2021/03/07 12:28:40;;;;;;;8.13;2.47;;;8.60;66.80;;;;;;5099960;28;20024;-72
2021/03/07 12:31:06;;;;;;;9.80;4.03;;;8.60;67.20;;;;;;5100536;28;20027;-71
2021/03/07 12:33:33;;;;;;;6.85;2.17;;;8.60;67.20;;;;;;5096839;28;20023;-73
2021/03/07 12:35:59;;;;;;;10.90;3.50;;;8.60;66.90;;;;;;5105474;28;20020;-74
2021/03/07 12:38:26;;;;;;;4.25;2.42;;;8.60;67.60;;;;;;5107782;28;20028;-71
2021/03/07 12:40:52;;;;;;;13.20;2.65;;;8.60;67.60;;;;;;5104850;28;20028;-71
2021/03/07 12:43:19;;;;;;;9.20;2.55;;;8.60;67.40;;;;;;5105068;28;20032;-71
2021/03/07 12:45:45;;;;;;;4.90;2.33;;;8.60;67.00;;;;;;5104815;28;20024;-71
2021/03/07 12:48:12;;;;;;;9.25;2.40;;;8.50;67.30;;;;;;5103461;28;20028;-71
2021/03/07 12:50:38;;;;;;;8.43;2.80;;;8.50;67.50;;;;;;5100833;28;20104;-71
2021/03/07 12:53:05;;;;;;;6.20;2.58;;;8.50;67.50;;;;;;5106351;28;20078;-71
2021/03/07 12:55:32;;;;;;;9.43;2.50;;;8.50;67.30;;;;;;5104495;28;20024;-72
2021/03/07 12:57:59;;;;;;;10.30;2.78;;;8.40;67.10;;;;;;5102066;28;20056;-71
2021/03/07 13:00:26;;;;;;;6.13;2.53;;;8.50;67.00;;;;;;5103992;28;20031;-71
2021/03/07 13:02:53;;;;;;;13.98;2.88;;;8.60;67.10;;;;;;5104043;28;20016;-71
2021/03/07 13:05:20;;;;;;;5.63;2.33;;;8.60;67.20;;;;;;5100291;28;20469;-71